Lake Arrowhead, CA (92352)

4:46 PM PDT on April 25, 2015 (GMT -0700)
TOWERING PINES | | Change Station
CLOSE
Current Station
Personal Weather Station
Location: Lake Arrowhead, CA
Elevation: 5141 ft
Nearby Weather Stations
Active Advisory: Wind Advisory Active Notice: Record Report

Elev 5141 ft 34.27 °N, 117.18 °W | Updated 3 minutes ago

Overcast
Overcast
42.8 °F
Feels Like 41 °F
N
3.2
Wind Variable Wind from NNW

Today
High -- | Low -- °F
--% Chance of Precip.
Yesterday
High -- | Low -- °F
Precip. -- in
6:05 AM 7:28 PM
Waxing Crescent, 50% visible
Pressure 29.86 in
Visibility 4.0 miles
Clouds Mostly Cloudy 1000 ft
Overcast 1600 ft
Windchill 41 °F
Dew Point 42 °F
Humidity 99%
Rainfall 0.04 in
Snow Depth Not available.
UV 1 out of 12
Pollen 6.90 out of 12
Air Quality Not available.
Flu Activity Sporadic
METAR KL35 252335Z AUTO 25010G18KT 4SM BR BKN010 OVC016 02/01 A2986 RMK AO2

More Conditions Fewer Conditions

Pressure 29.86 in
Visibility 4.0 miles
Clouds Mostly Cloudy 1000 ft
Overcast 1600 ft
Windchill 41 °F
Dew Point 42 °F
Humidity 99%
Rainfall 0.04 in
Snow Depth Not available.
UV 1 out of 12
Pollen 6.90 out of 12
Air Quality Not available.
Flu Activity Sporadic
METAR KL35 252335Z AUTO 25010G18KT 4SM BR BKN010 OVC016 02/01 A2986 RMK AO2

More Conditions Fewer Conditions

10-Day Weather Forecast

Almanac

Astronomy

Apr. 25, 2015 Rise Set
Actual Time
Civil Twilight
Nautical Twilight
Astronomical Twilight
Moon
Length of Visible Light
Length of Day
Tomorrow will be .
, % of the Moon is Illuminated

Today's Extremes

State Highs State Lows

Community

WunderPhotos

Upload Photos

1,816,850 photos uploaded!

WunderBlogs® & News

Nearby

Air Quality

  Air Quality AQ Index Pollutant
Not available.

Snow Depth

Station Depth Elevation

Earthquake Activity

City Distance Mag. Time & Date
Minimum magnitude displayed is 2.5.

Coastal Water Temperatures

Place Temperature

Stations

Nearby Weather Stations

Station Location Temp. Windchill Dew Point Humidity Wind Precip. Elev Updated Type
                   
Wind Advisory
Statement as of 1:10 PM PDT on April 25, 2015

... Wind Advisory now in effect until midnight PDT tonight...

* winds... west to northwest winds 25 to 35 mph with gusts to 50 mph.
Isolated gusts to 65 mph near the mountain passes.

* Timing... strongest winds occurring this evening... diminishing
overnight.

* Location... near the Mountain Ridge tops and along the Desert
Mountain slopes.

* Impacts... strong winds will make travel hazardous for high
profile vehicles and could cause travel disruptions.

* Outlook... winds will weaken Sunday morning. Northeast winds will
develop in the mountain passes Sunday night.

Precautionary/preparedness actions...

A Wind Advisory means that winds of 35 mph are expected. Winds
this strong can make driving difficult... especially for high
profile vehicles. Use extra caution.



Tardy